sensor_id;sensor_type;location;lat;lon;timestamp;pressure;altitude;pressure_sealevel;temperature
64394;BMP280;50712;49.506;10.400;2024-02-28T00:00:15;98026.47;;;9.37
64394;BMP280;50712;49.506;10.400;2024-02-28T00:00:45;98026.91;;;9.36
64394;BMP280;50712;49.506;10.400;2024-02-28T00:01:16;98033.09;;;9.36
64394;BMP280;50712;49.506;10.400;2024-02-28T00:01:49;98038.19;;;9.34
64394;BMP280;50712;49.506;10.400;2024-02-28T00:02:23;98032.03;;;9.34
64394;BMP280;50712;49.506;10.400;2024-02-28T00:02:53;98034.72;;;9.34
64394;BMP280;50712;49.506;10.400;2024-02-28T00:03:23;98035.94;;;9.33
64394;BMP280;50712;49.506;10.400;2024-02-28T00:03:54;98032.47;;;9.32
64394;BMP280;50712;49.506;10.400;2024-02-28T00:04:24;98038.31;;;9.31
64394;BMP280;50712;49.506;10.400;2024-02-28T00:04:55;98037.56;;;9.30
64394;BMP280;50712;49.506;10.400;2024-02-28T00:05:25;98033.31;;;9.29
64394;BMP280;50712;49.506;10.400;2024-02-28T00:05:55;98037.22;;;9.28
64394;BMP280;50712;49.506;10.400;2024-02-28T00:06:25;98033.00;;;9.27
64394;BMP280;50712;49.506;10.400;2024-02-28T00:06:56;98038.44;;;9.27
64394;BMP280;50712;49.506;10.400;2024-02-28T00:07:26;98033.41;;;9.26
64394;BMP280;50712;49.506;10.400;2024-02-28T00:07:57;98031.47;;;9.26
64394;BMP280;50712;49.506;10.400;2024-02-28T00:08:27;98033.41;;;9.26
64394;BMP280;50712;49.506;10.400;2024-02-28T00:08:57;98034.19;;;9.26
64394;BMP280;50712;49.506;10.400;2024-02-28T00:09:27;98034.19;;;9.26
64394;BMP280;50712;49.506;10.400;2024-02-28T00:09:58;98042.34;;;9.26
64394;BMP280;50712;49.506;10.400;2024-02-28T00:10:28;98035.34;;;9.25
64394;BMP280;50712;49.506;10.400;2024-02-28T00:10:58;98034.59;;;9.25
64394;BMP280;50712;49.506;10.400;2024-02-28T00:11:29;98036.56;;;9.24
64394;BMP280;50712;49.506;10.400;2024-02-28T00:11:59;98033.84;;;9.24
64394;BMP280;50712;49.506;10.400;2024-02-28T00:12:29;98037.00;;;9.23
64394;BMP280;50712;49.506;10.400;2024-02-28T00:13:00;98032.00;;;9.21
64394;BMP280;50712;49.506;10.400;2024-02-28T00:13:30;98031.25;;;9.21
64394;BMP280;50712;49.506;10.400;2024-02-28T00:14:00;98035.91;;;9.20
64394;BMP280;50712;49.506;10.400;2024-02-28T00:14:32;98036.69;;;9.21
64394;BMP280;50712;49.506;10.400;2024-02-28T00:15:02;98040.59;;;9.20
64394;BMP280;50712;49.506;10.400;2024-02-28T00:15:35;98031.66;;;9.19
64394;BMP280;50712;49.506;10.400;2024-02-28T00:16:05;98036.00;;;9.17
64394;BMP280;50712;49.506;10.400;2024-02-28T00:16:36;98036.41;;;9.15
64394;BMP280;50712;49.506;10.400;2024-02-28T00:17:06;98033.69;;;9.15
64394;BMP280;50712;49.506;10.400;2024-02-28T00:17:40;98029.50;;;9.14
64394;BMP280;50712;49.506;10.400;2024-02-28T00:18:11;98036.88;;;9.14
64394;BMP280;50712;49.506;10.400;2024-02-28T00:18:42;98037.66;;;9.14
64394;BMP280;50712;49.506;10.400;2024-02-28T00:19:12;98036.88;;;9.14
64394;BMP280;50712;49.506;10.400;2024-02-28T00:19:42;98024.81;;;9.15
64394;BMP280;50712;49.506;10.400;2024-02-28T00:20:13;98030.97;;;9.15
64394;BMP280;50712;49.506;10.400;2024-02-28T00:20:44;98034.94;;;9.14
64394;BMP280;50712;49.506;10.400;2024-02-28T00:21:15;98038.41;;;9.15
64394;BMP280;50712;49.506;10.400;2024-02-28T00:21:45;98039.91;;;9.16
64394;BMP280;50712;49.506;10.400;2024-02-28T00:22:16;98039.13;;;9.15
64394;BMP280;50712;49.506;10.400;2024-02-28T00:22:46;98034.94;;;9.14
64394;BMP280;50712;49.506;10.400;2024-02-28T00:23:16;98034.94;;;9.14
64394;BMP280;50712;49.506;10.400;2024-02-28T00:23:47;98036.88;;;9.14
64394;BMP280;50712;49.506;10.400;2024-02-28T00:24:17;98034.59;;;9.12
64394;BMP280;50712;49.506;10.400;2024-02-28T00:24:47;98041.56;;;9.13
64394;BMP280;50712;49.506;10.400;2024-02-28T00:25:18;98036.53;;;9.12
64394;BMP280;50712;49.506;10.400;2024-02-28T00:25:48;98041.97;;;9.12
64394;BMP280;50712;49.506;10.400;2024-02-28T00:26:18;98040.47;;;9.11
64394;BMP280;50712;49.506;10.400;2024-02-28T00:26:48;98037.75;;;9.11
64394;BMP280;50712;49.506;10.400;2024-02-28T00:27:19;98033.09;;;9.11
64394;BMP280;50712;49.506;10.400;2024-02-28T00:27:49;98036.97;;;9.10
64394;BMP280;50712;49.506;10.400;2024-02-28T00:28:19;98045.47;;;9.12
64394;BMP280;50712;49.506;10.400;2024-02-28T00:28:50;98044.69;;;9.12
64394;BMP280;50712;49.506;10.400;2024-02-28T00:29:20;98039.69;;;9.10
64394;BMP280;50712;49.506;10.400;2024-02-28T00:29:50;98038.94;;;9.10
64394;BMP280;50712;49.506;10.400;2024-02-28T00:30:21;98046.31;;;9.09
64394;BMP280;50712;49.506;10.400;2024-02-28T00:30:51;98043.28;;;9.07
64394;BMP280;50712;49.506;10.400;2024-02-28T00:31:22;98037.06;;;9.07
64394;BMP280;50712;49.506;10.400;2024-02-28T00:31:52;98036.31;;;9.06
64394;BMP280;50712;49.506;10.400;2024-02-28T00:32:23;98044.16;;;9.04
64394;BMP280;50712;49.506;10.400;2024-02-28T00:32:53;98040.66;;;9.04
64394;BMP280;50712;49.506;10.400;2024-02-28T00:33:24;98044.91;;;9.05
64394;BMP280;50712;49.506;10.400;2024-02-28T00:33:54;98040.66;;;9.04
64394;BMP280;50712;49.506;10.400;2024-02-28T00:34:24;98045.34;;;9.03
64394;BMP280;50712;49.506;10.400;2024-02-28T00:34:55;98041.44;;;9.04
64394;BMP280;50712;49.506;10.400;2024-02-28T00:35:26;98029.81;;;9.04
64394;BMP280;50712;49.506;10.400;2024-02-28T00:35:56;98041.44;;;9.04
64394;BMP280;50712;49.506;10.400;2024-02-28T00:36:26;98043.69;;;9.06
64394;BMP280;50712;49.506;10.400;2024-02-28T00:36:57;98034.34;;;9.07
64394;BMP280;50712;49.506;10.400;2024-02-28T00:37:27;98043.28;;;9.07
64394;BMP280;50712;49.506;10.400;2024-02-28T00:37:57;98040.56;;;9.07
64394;BMP280;50712;49.506;10.400;2024-02-28T00:38:28;98044.03;;;9.08
64394;BMP280;50712;49.506;10.400;2024-02-28T00:38:58;98040.88;;;9.09
64394;BMP280;50712;49.506;10.400;2024-02-28T00:39:28;98050.91;;;9.12
64394;BMP280;50712;49.506;10.400;2024-02-28T00:39:59;98050.91;;;9.12
64394;BMP280;50712;49.506;10.400;2024-02-28T00:40:30;98053.63;;;9.12
64394;BMP280;50712;49.506;10.400;2024-02-28T00:41:00;98056.69;;;9.14
64394;BMP280;50712;49.506;10.400;2024-02-28T00:41:30;98040.69;;;9.16
64394;BMP280;50712;49.506;10.400;2024-02-28T00:42:01;98052.31;;;9.17
64394;BMP280;50712;49.506;10.400;2024-02-28T00:42:31;98050.38;;;9.17
64394;BMP280;50712;49.506;10.400;2024-02-28T00:43:01;98056.13;;;9.19
64394;BMP280;50712;49.506;10.400;2024-02-28T00:43:32;98056.13;;;9.19
64394;BMP280;50712;49.506;10.400;2024-02-28T00:44:02;98052.22;;;9.20
64394;BMP280;50712;49.506;10.400;2024-02-28T00:44:33;98048.75;;;9.20
64394;BMP280;50712;49.506;10.400;2024-02-28T00:45:03;98052.22;;;9.20
64394;BMP280;50712;49.506;10.400;2024-02-28T00:45:34;98052.22;;;9.20
64394;BMP280;50712;49.506;10.400;2024-02-28T00:46:04;98050.28;;;9.21
64394;BMP280;50712;49.506;10.400;2024-02-28T00:46:39;98049.84;;;9.22
64394;BMP280;50712;49.506;10.400;2024-02-28T00:47:09;98050.28;;;9.21
64394;BMP280;50712;49.506;10.400;2024-02-28T00:47:40;98052.22;;;9.20
64394;BMP280;50712;49.506;10.400;2024-02-28T00:48:10;98055.72;;;9.21
64394;BMP280;50712;49.506;10.400;2024-02-28T00:48:40;98053.41;;;9.19
64394;BMP280;50712;49.506;10.400;2024-02-28T00:49:11;98046.44;;;9.18
64394;BMP280;50712;49.506;10.400;2024-02-28T00:49:41;98041.44;;;9.17
64394;BMP280;50712;49.506;10.400;2024-02-28T00:50:11;98046.13;;;9.16
64394;BMP280;50712;49.506;10.400;2024-02-28T00:50:42;98050.78;;;9.16
64394;BMP280;50712;49.506;10.400;2024-02-28T00:51:12;98048.53;;;9.14
64394;BMP280;50712;49.506;10.400;2024-02-28T00:51:43;98047.00;;;9.13
64394;BMP280;50712;49.506;10.400;2024-02-28T00:52:13;98049.38;;;9.11
64394;BMP280;50712;49.506;10.400;2024-02-28T00:52:43;98051.34;;;9.11
64394;BMP280;50712;49.506;10.400;2024-02-28T00:53:14;98037.41;;;9.09
64394;BMP280;50712;49.506;10.400;2024-02-28T00:53:44;98047.94;;;9.07
64394;BMP280;50712;49.506;10.400;2024-02-28T00:54:14;98046.88;;;9.04
64394;BMP280;50712;49.506;10.400;2024-02-28T00:54:45;98039.91;;;9.03
64394;BMP280;50712;49.506;10.400;2024-02-28T00:55:15;98041.84;;;9.02
64394;BMP280;50712;49.506;10.400;2024-02-28T00:55:45;98041.53;;;9.00
64394;BMP280;50712;49.506;10.400;2024-02-28T00:56:16;98040.75;;;9.00
64394;BMP280;50712;49.506;10.400;2024-02-28T00:56:46;98043.16;;;8.98
64394;BMP280;50712;49.506;10.400;2024-02-28T00:57:17;98044.31;;;8.97
64394;BMP280;50712;49.506;10.400;2024-02-28T00:57:47;98043.56;;;8.96
64394;BMP280;50712;49.506;10.400;2024-02-28T00:58:17;98039.78;;;8.94
64394;BMP280;50712;49.506;10.400;2024-02-28T00:58:48;98038.25;;;8.93
64394;BMP280;50712;49.506;10.400;2024-02-28T00:59:18;98039.44;;;8.92
64394;BMP280;50712;49.506;10.400;2024-02-28T00:59:48;98041.41;;;8.91
64394;BMP280;50712;49.506;10.400;2024-02-28T01:00:19;98044.53;;;8.90
64394;BMP280;50712;49.506;10.400;2024-02-28T01:00:49;98039.09;;;8.90
64394;BMP280;50712;49.506;10.400;2024-02-28T01:01:19;98039.53;;;8.88
64394;BMP280;50712;49.506;10.400;2024-02-28T01:01:50;98042.25;;;8.88
64394;BMP280;50712;49.506;10.400;2024-02-28T01:02:21;98046.91;;;8.88
64394;BMP280;50712;49.506;10.400;2024-02-28T01:02:52;98039.94;;;8.87
64394;BMP280;50712;49.506;10.400;2024-02-28T01:03:22;98039.94;;;8.87
64394;BMP280;50712;49.506;10.400;2024-02-28T01:03:52;98039.53;;;8.88
64394;BMP280;50712;49.506;10.400;2024-02-28T01:04:23;98042.25;;;8.88
64394;BMP280;50712;49.506;10.400;2024-02-28T01:04:53;98044.53;;;8.90
64394;BMP280;50712;49.506;10.400;2024-02-28T01:05:23;98044.53;;;8.90
64394;BMP280;50712;49.506;10.400;2024-02-28T01:05:54;98043.34;;;8.91
64394;BMP280;50712;49.506;10.400;2024-02-28T01:06:24;98046.06;;;8.91
64394;BMP280;50712;49.506;10.400;2024-02-28T01:06:54;98047.59;;;8.92
64394;BMP280;50712;49.506;10.400;2024-02-28T01:07:25;98045.63;;;8.92
64394;BMP280;50712;49.506;10.400;2024-02-28T01:07:55;98047.94;;;8.94
64394;BMP280;50712;49.506;10.400;2024-02-28T01:08:26;98047.16;;;8.93
64394;BMP280;50712;49.506;10.400;2024-02-28T01:08:57;98048.69;;;8.94
64394;BMP280;50712;49.506;10.400;2024-02-28T01:09:27;98041.31;;;8.95
64394;BMP280;50712;49.506;10.400;2024-02-28T01:09:58;98042.81;;;8.96
64394;BMP280;50712;49.506;10.400;2024-02-28T01:10:28;98044.31;;;8.97
64394;BMP280;50712;49.506;10.400;2024-02-28T01:10:58;98048.56;;;8.98
64394;BMP280;50712;49.506;10.400;2024-02-28T01:11:29;98036.50;;;8.99
64394;BMP280;50712;49.506;10.400;2024-02-28T01:11:59;98046.97;;;9.00
64394;BMP280;50712;49.506;10.400;2024-02-28T01:12:30;98044.25;;;9.00
64394;BMP280;50712;49.506;10.400;2024-02-28T01:13:00;98049.22;;;9.02
64394;BMP280;50712;49.506;10.400;2024-02-28T01:13:30;98039.13;;;9.02
64394;BMP280;50712;49.506;10.400;2024-02-28T01:14:00;98041.44;;;9.04
64394;BMP280;50712;49.506;10.400;2024-02-28T01:14:31;98044.56;;;9.02
64394;BMP280;50712;49.506;10.400;2024-02-28T01:15:01;98044.16;;;9.04
64394;BMP280;50712;49.506;10.400;2024-02-28T01:15:31;98052.31;;;9.04
64394;BMP280;50712;49.506;10.400;2024-02-28T01:16:02;98048.41;;;9.05
64394;BMP280;50712;49.506;10.400;2024-02-28T01:16:32;98047.16;;;9.06
64394;BMP280;50712;49.506;10.400;2024-02-28T01:17:03;98044.16;;;9.04
64394;BMP280;50712;49.506;10.400;2024-02-28T01:17:33;98048.41;;;9.05
64394;BMP280;50712;49.506;10.400;2024-02-28T01:18:04;98044.91;;;9.05
64394;BMP280;50712;49.506;10.400;2024-02-28T01:18:34;98048.41;;;9.05
64394;BMP280;50712;49.506;10.400;2024-02-28T01:19:04;98049.88;;;9.06
64394;BMP280;50712;49.506;10.400;2024-02-28T01:19:35;98054.91;;;9.08
64394;BMP280;50712;49.506;10.400;2024-02-28T01:20:06;98049.47;;;9.08
64394;BMP280;50712;49.506;10.400;2024-02-28T01:20:38;98044.81;;;9.08
64394;BMP280;50712;49.506;10.400;2024-02-28T01:21:08;98047.53;;;9.08
64394;BMP280;50712;49.506;10.400;2024-02-28T01:21:39;98047.53;;;9.08
64394;BMP280;50712;49.506;10.400;2024-02-28T01:22:09;98046.75;;;9.08
64394;BMP280;50712;49.506;10.400;2024-02-28T01:22:40;98049.81;;;9.10
64394;BMP280;50712;49.506;10.400;2024-02-28T01:23:10;98047.09;;;9.10
64394;BMP280;50712;49.506;10.400;2024-02-28T01:23:40;98047.53;;;9.08
64394;BMP280;50712;49.506;10.400;2024-02-28T01:24:11;98044.81;;;9.08
64394;BMP280;50712;49.506;10.400;2024-02-28T01:24:41;98037.84;;;9.07
64394;BMP280;50712;49.506;10.400;2024-02-28T01:25:12;98043.28;;;9.07
64394;BMP280;50712;49.506;10.400;2024-02-28T01:25:42;98041.72;;;9.06
64394;BMP280;50712;49.506;10.400;2024-02-28T01:26:12;98043.28;;;9.07
64394;BMP280;50712;49.506;10.400;2024-02-28T01:26:43;98048.25;;;9.09
64394;BMP280;50712;49.506;10.400;2024-02-28T01:27:13;98037.84;;;9.07
64394;BMP280;50712;49.506;10.400;2024-02-28T01:27:43;98037.41;;;9.09
64394;BMP280;50712;49.506;10.400;2024-02-28T01:28:14;98035.88;;;9.08
64394;BMP280;50712;49.506;10.400;2024-02-28T01:28:44;98033.94;;;9.08
64394;BMP280;50712;49.506;10.400;2024-02-28T01:29:15;98046.31;;;9.09
64394;BMP280;50712;49.506;10.400;2024-02-28T01:29:45;98041.66;;;9.10
64394;BMP280;50712;49.506;10.400;2024-02-28T01:30:15;98042.41;;;9.10
64394;BMP280;50712;49.506;10.400;2024-02-28T01:30:46;98036.97;;;9.10
64394;BMP280;50712;49.506;10.400;2024-02-28T01:31:16;98038.50;;;9.11
64394;BMP280;50712;49.506;10.400;2024-02-28T01:31:46;98043.94;;;9.11
64394;BMP280;50712;49.506;10.400;2024-02-28T01:32:16;98044.69;;;9.12
64394;BMP280;50712;49.506;10.400;2024-02-28T01:32:47;98048.63;;;9.11
64394;BMP280;50712;49.506;10.400;2024-02-28T01:33:18;98038.50;;;9.11
64394;BMP280;50712;49.506;10.400;2024-02-28T01:33:48;98042.41;;;9.10
64394;BMP280;50712;49.506;10.400;2024-02-28T01:34:18;98047.09;;;9.10
64394;BMP280;50712;49.506;10.400;2024-02-28T01:34:49;98038.94;;;9.10
64394;BMP280;50712;49.506;10.400;2024-02-28T01:35:19;98043.19;;;9.11
64394;BMP280;50712;49.506;10.400;2024-02-28T01:35:49;98040.88;;;9.09
64394;BMP280;50712;49.506;10.400;2024-02-28T01:36:19;98048.63;;;9.11
64394;BMP280;50712;49.506;10.400;2024-02-28T01:36:50;98047.09;;;9.10
64394;BMP280;50712;49.506;10.400;2024-02-28T01:37:20;98044.03;;;9.08
64394;BMP280;50712;49.506;10.400;2024-02-28T01:37:50;98049.47;;;9.08
64394;BMP280;50712;49.506;10.400;2024-02-28T01:38:21;98049.47;;;9.08
64394;BMP280;50712;49.506;10.400;2024-02-28T01:38:51;98052.59;;;9.06
64394;BMP280;50712;49.506;10.400;2024-02-28T01:39:22;98044.16;;;9.04
64394;BMP280;50712;49.506;10.400;2024-02-28T01:39:53;98057.38;;;9.02
64394;BMP280;50712;49.506;10.400;2024-02-28T01:40:23;98049.69;;;9.00
64394;BMP280;50712;49.506;10.400;2024-02-28T01:40:54;98055.53;;;8.99
64394;BMP280;50712;49.506;10.400;2024-02-28T01:41:24;98048.56;;;8.98
64394;BMP280;50712;49.506;10.400;2024-02-28T01:41:54;98054.44;;;8.96
64394;BMP280;50712;49.506;10.400;2024-02-28T01:42:25;98052.19;;;8.95
64394;BMP280;50712;49.506;10.400;2024-02-28T01:43:01;98047.94;;;8.94
64394;BMP280;50712;49.506;10.400;2024-02-28T01:43:38;98058.47;;;8.92
64394;BMP280;50712;49.506;10.400;2024-02-28T01:44:08;98052.25;;;8.91
64394;BMP280;50712;49.506;10.400;2024-02-28T01:44:42;98055.38;;;8.90
64394;BMP280;50712;49.506;10.400;2024-02-28T01:45:14;98052.34;;;8.88
64394;BMP280;50712;49.506;10.400;2024-02-28T01:45:45;98051.56;;;8.87
64394;BMP280;50712;49.506;10.400;2024-02-28T01:46:27;98052.03;;;8.86
64394;BMP280;50712;49.506;10.400;2024-02-28T01:46:59;98056.72;;;8.85
64394;BMP280;50712;49.506;10.400;2024-02-28T01:47:29;98054.00;;;8.85
64394;BMP280;50712;49.506;10.400;2024-02-28T01:48:00;98055.94;;;8.85
64394;BMP280;50712;49.506;10.400;2024-02-28T01:48:31;98060.19;;;8.86
64394;BMP280;50712;49.506;10.400;2024-02-28T01:49:01;98059.44;;;8.85
64394;BMP280;50712;49.506;10.400;2024-02-28T01:49:32;98054.75;;;8.86
64394;BMP280;50712;49.506;10.400;2024-02-28T01:50:02;98057.00;;;8.87
64394;BMP280;50712;49.506;10.400;2024-02-28T01:50:33;98058.53;;;8.88
64394;BMP280;50712;49.506;10.400;2024-02-28T01:51:04;98061.25;;;8.88
64394;BMP280;50712;49.506;10.400;2024-02-28T01:51:35;98060.06;;;8.89
64394;BMP280;50712;49.506;10.400;2024-02-28T01:52:06;98054.63;;;8.89
64394;BMP280;50712;49.506;10.400;2024-02-28T01:52:37;98060.41;;;8.91
64394;BMP280;50712;49.506;10.400;2024-02-28T01:53:09;98059.66;;;8.91
64394;BMP280;50712;49.506;10.400;2024-02-28T01:53:41;98060.41;;;8.91
64394;BMP280;50712;49.506;10.400;2024-02-28T01:54:12;98059.22;;;8.92
64394;BMP280;50712;49.506;10.400;2024-02-28T01:54:43;98064.63;;;8.92
64394;BMP280;50712;49.506;10.400;2024-02-28T01:55:14;98059.97;;;8.93
64394;BMP280;50712;49.506;10.400;2024-02-28T01:55:44;98060.75;;;8.93
64394;BMP280;50712;49.506;10.400;2024-02-28T01:56:15;98063.81;;;8.95
64394;BMP280;50712;49.506;10.400;2024-02-28T01:56:46;98056.84;;;8.94
64394;BMP280;50712;49.506;10.400;2024-02-28T01:57:17;98070.00;;;8.96
64394;BMP280;50712;49.506;10.400;2024-02-28T01:57:47;98070.72;;;8.96
64394;BMP280;50712;49.506;10.400;2024-02-28T01:58:17;98064.13;;;8.97
64394;BMP280;50712;49.506;10.400;2024-02-28T01:58:49;98060.63;;;8.97
64394;BMP280;50712;49.506;10.400;2024-02-28T01:59:19;98062.16;;;8.98
64394;BMP280;50712;49.506;10.400;2024-02-28T01:59:54;98070.31;;;8.98
64394;BMP280;50712;49.506;10.400;2024-02-28T02:00:25;98058.25;;;8.99
64394;BMP280;50712;49.506;10.400;2024-02-28T02:00:58;98058.25;;;8.99
64394;BMP280;50712;49.506;10.400;2024-02-28T02:01:29;98056.28;;;8.99
64394;BMP280;50712;49.506;10.400;2024-02-28T02:02:00;98061.31;;;9.01
64394;BMP280;50712;49.506;10.400;2024-02-28T02:02:30;98064.03;;;9.01
64394;BMP280;50712;49.506;10.400;2024-02-28T02:03:01;98058.59;;;9.01
64394;BMP280;50712;49.506;10.400;2024-02-28T02:03:31;98060.09;;;9.02
64394;BMP280;50712;49.506;10.400;2024-02-28T02:04:04;98058.91;;;9.03
64394;BMP280;50712;49.506;10.400;2024-02-28T02:04:35;98058.91;;;9.03
64394;BMP280;50712;49.506;10.400;2024-02-28T02:05:05;98058.91;;;9.03
64394;BMP280;50712;49.506;10.400;2024-02-28T02:05:36;98067.84;;;9.04
64394;BMP280;50712;49.506;10.400;2024-02-28T02:06:06;98065.91;;;9.04
64394;BMP280;50712;49.506;10.400;2024-02-28T02:06:37;98065.91;;;9.04
64394;BMP280;50712;49.506;10.400;2024-02-28T02:07:11;98065.91;;;9.04
64394;BMP280;50712;49.506;10.400;2024-02-28T02:07:42;98071.34;;;9.04
64394;BMP280;50712;49.506;10.400;2024-02-28T02:08:12;98071.34;;;9.04
64394;BMP280;50712;49.506;10.400;2024-02-28T02:08:44;98060.47;;;9.04
64394;BMP280;50712;49.506;10.400;2024-02-28T02:09:14;98072.50;;;9.03
64394;BMP280;50712;49.506;10.400;2024-02-28T02:09:45;98067.06;;;9.03
64394;BMP280;50712;49.506;10.400;2024-02-28T02:10:16;98074.06;;;9.04
64394;BMP280;50712;49.506;10.400;2024-02-28T02:10:47;98067.84;;;9.04
64394;BMP280;50712;49.506;10.400;2024-02-28T02:11:17;98070.56;;;9.04
64394;BMP280;50712;49.506;10.400;2024-02-28T02:11:49;98065.13;;;9.04
64394;BMP280;50712;49.506;10.400;2024-02-28T02:12:19;98067.06;;;9.03
64394;BMP280;50712;49.506;10.400;2024-02-28T02:12:49;98067.84;;;9.04
64394;BMP280;50712;49.506;10.400;2024-02-28T02:13:19;98070.56;;;9.04
64394;BMP280;50712;49.506;10.400;2024-02-28T02:13:50;98065.91;;;9.04
64394;BMP280;50712;49.506;10.400;2024-02-28T02:14:22;98063.19;;;9.04
64394;BMP280;50712;49.506;10.400;2024-02-28T02:14:52;98069.38;;;9.05
64394;BMP280;50712;49.506;10.400;2024-02-28T02:15:22;98061.63;;;9.03
64394;BMP280;50712;49.506;10.400;2024-02-28T02:15:53;98069.03;;;9.02
64394;BMP280;50712;49.506;10.400;2024-02-28T02:16:23;98070.97;;;9.02
64394;BMP280;50712;49.506;10.400;2024-02-28T02:16:56;98068.69;;;9.00
64394;BMP280;50712;49.506;10.400;2024-02-28T02:17:26;98070.31;;;8.98
64394;BMP280;50712;49.506;10.400;2024-02-28T02:17:56;98066.84;;;8.97
64394;BMP280;50712;49.506;10.400;2024-02-28T02:18:27;98071.19;;;8.95
64394;BMP280;50712;49.506;10.400;2024-02-28T02:18:57;98066.19;;;8.93
64394;BMP280;50712;49.506;10.400;2024-02-28T02:19:28;98072.78;;;8.92
64394;BMP280;50712;49.506;10.400;2024-02-28T02:19:58;98071.28;;;8.91
64394;BMP280;50712;49.506;10.400;2024-02-28T02:20:29;98075.50;;;8.92
64394;BMP280;50712;49.506;10.400;2024-02-28T02:21:02;98069.34;;;8.92
64394;BMP280;50712;49.506;10.400;2024-02-28T02:21:41;98079.00;;;8.93
64394;BMP280;50712;49.506;10.400;2024-02-28T02:22:18;98076.28;;;8.93
64394;BMP280;50712;49.506;10.400;2024-02-28T02:22:50;98078.59;;;8.94
64394;BMP280;50712;49.506;10.400;2024-02-28T02:23:21;98079.34;;;8.95
64394;BMP280;50712;49.506;10.400;2024-02-28T02:23:51;98077.41;;;8.95
64394;BMP280;50712;49.506;10.400;2024-02-28T02:24:21;98080.84;;;8.96
64394;BMP280;50712;49.506;10.400;2024-02-28T02:24:51;98081.59;;;8.96
64394;BMP280;50712;49.506;10.400;2024-02-28T02:25:22;98074.22;;;8.97
64394;BMP280;50712;49.506;10.400;2024-02-28T02:25:52;98076.16;;;8.96
64394;BMP280;50712;49.506;10.400;2024-02-28T02:26:23;98075.75;;;8.98
64394;BMP280;50712;49.506;10.400;2024-02-28T02:26:57;98080.41;;;8.97
64394;BMP280;50712;49.506;10.400;2024-02-28T02:27:28;98079.25;;;8.98
64394;BMP280;50712;49.506;10.400;2024-02-28T02:27:58;98086.19;;;8.99
64394;BMP280;50712;49.506;10.400;2024-02-28T02:28:29;98082.69;;;8.99
64394;BMP280;50712;49.506;10.400;2024-02-28T02:28:59;98081.50;;;9.00
64394;BMP280;50712;49.506;10.400;2024-02-28T02:29:30;98089.25;;;9.02
64394;BMP280;50712;49.506;10.400;2024-02-28T02:30:00;98086.53;;;9.02
64394;BMP280;50712;49.506;10.400;2024-02-28T02:30:31;98078.38;;;9.02
64394;BMP280;50712;49.506;10.400;2024-02-28T02:31:01;98088.81;;;9.03
64394;BMP280;50712;49.506;10.400;2024-02-28T02:31:32;98085.31;;;9.02
64394;BMP280;50712;49.506;10.400;2024-02-28T02:32:02;98089.59;;;9.04
64394;BMP280;50712;49.506;10.400;2024-02-28T02:32:32;98088.03;;;9.02
64394;BMP280;50712;49.506;10.400;2024-02-28T02:33:03;98086.88;;;9.04
64394;BMP280;50712;49.506;10.400;2024-02-28T02:33:33;98087.63;;;9.04
64394;BMP280;50712;49.506;10.400;2024-02-28T02:34:03;98089.59;;;9.04
64394;BMP280;50712;49.506;10.400;2024-02-28T02:34:34;98086.88;;;9.04
64394;BMP280;50712;49.506;10.400;2024-02-28T02:35:04;98082.63;;;9.02
64394;BMP280;50712;49.506;10.400;2024-02-28T02:35:35;98087.63;;;9.04
64394;BMP280;50712;49.506;10.400;2024-02-28T02:36:05;98090.00;;;9.02
64394;BMP280;50712;49.506;10.400;2024-02-28T02:36:36;98088.81;;;9.03
64394;BMP280;50712;49.506;10.400;2024-02-28T02:37:06;98093.06;;;9.04
64394;BMP280;50712;49.506;10.400;2024-02-28T02:37:42;98090.34;;;9.04
64394;BMP280;50712;49.506;10.400;2024-02-28T02:38:15;98103.47;;;9.06
64394;BMP280;50712;49.506;10.400;2024-02-28T02:38:46;98098.81;;;9.06
64394;BMP280;50712;49.506;10.400;2024-02-28T02:39:16;98093.38;;;9.06
64394;BMP280;50712;49.506;10.400;2024-02-28T02:39:47;98099.56;;;9.07
64394;BMP280;50712;49.506;10.400;2024-02-28T02:40:17;98103.06;;;9.07
64394;BMP280;50712;49.506;10.400;2024-02-28T02:40:50;98103.81;;;9.08
64394;BMP280;50712;49.506;10.400;2024-02-28T02:41:21;98101.88;;;9.08
64394;BMP280;50712;49.506;10.400;2024-02-28T02:41:52;98108.06;;;9.09
64394;BMP280;50712;49.506;10.400;2024-02-28T02:42:22;98109.59;;;9.10
64394;BMP280;50712;49.506;10.400;2024-02-28T02:42:52;98108.81;;;9.09
64394;BMP280;50712;49.506;10.400;2024-02-28T02:43:22;98104.94;;;9.10
64394;BMP280;50712;49.506;10.400;2024-02-28T02:43:53;98107.66;;;9.10
64394;BMP280;50712;49.506;10.400;2024-02-28T02:44:24;98110.38;;;9.10
64394;BMP280;50712;49.506;10.400;2024-02-28T02:44:54;98104.16;;;9.10
64394;BMP280;50712;49.506;10.400;2024-02-28T02:45:24;98106.88;;;9.10
64394;BMP280;50712;49.506;10.400;2024-02-28T02:45:55;98110.38;;;9.10
64394;BMP280;50712;49.506;10.400;2024-02-28T02:46:25;98108.41;;;9.11
64394;BMP280;50712;49.506;10.400;2024-02-28T02:46:55;98113.41;;;9.12
64394;BMP280;50712;49.506;10.400;2024-02-28T02:47:26;98110.69;;;9.12
64394;BMP280;50712;49.506;10.400;2024-02-28T02:47:56;98105.25;;;9.12
64394;BMP280;50712;49.506;10.400;2024-02-28T02:48:26;98109.50;;;9.13
64394;BMP280;50712;49.506;10.400;2024-02-28T02:48:57;98116.13;;;9.12
64394;BMP280;50712;49.506;10.400;2024-02-28T02:49:27;98123.09;;;9.13
64394;BMP280;50712;49.506;10.400;2024-02-28T02:49:57;98111.47;;;9.13
64394;BMP280;50712;49.506;10.400;2024-02-28T02:50:28;98121.16;;;9.14
64394;BMP280;50712;49.506;10.400;2024-02-28T02:50:58;98121.91;;;9.14
64394;BMP280;50712;49.506;10.400;2024-02-28T02:51:28;98121.16;;;9.14
64394;BMP280;50712;49.506;10.400;2024-02-28T02:51:59;98126.13;;;9.15
64394;BMP280;50712;49.506;10.400;2024-02-28T02:52:29;98131.56;;;9.15
64394;BMP280;50712;49.506;10.400;2024-02-28T02:52:59;98127.66;;;9.16
64394;BMP280;50712;49.506;10.400;2024-02-28T02:53:30;98126.88;;;9.16
64394;BMP280;50712;49.506;10.400;2024-02-28T02:54:00;98129.59;;;9.16
64394;BMP280;50712;49.506;10.400;2024-02-28T02:54:30;98127.66;;;9.16
64394;BMP280;50712;49.506;10.400;2024-02-28T02:55:01;98128.84;;;9.15
64394;BMP280;50712;49.506;10.400;2024-02-28T02:55:31;98129.59;;;9.16
64394;BMP280;50712;49.506;10.400;2024-02-28T02:56:04;98131.16;;;9.17
64394;BMP280;50712;49.506;10.400;2024-02-28T02:56:35;98125.72;;;9.17
64394;BMP280;50712;49.506;10.400;2024-02-28T02:57:06;98132.69;;;9.18